EDT,Max TemperatureF,Mean TemperatureF,Min TemperatureF,Max Dew PointF,MeanDew PointF,Min DewpointF,Max Humidity, Mean Humidity, Min Humidity, Max Sea Level PressureIn, Mean Sea Level PressureIn, Min Sea Level PressureIn, Max VisibilityMiles, Mean VisibilityMiles, Min VisibilityMiles, Max Wind SpeedMPH, Mean Wind SpeedMPH, Max Gust SpeedMPH,PrecipitationIn, CloudCover, Events, WindDirDegrees
2011-10-1,80,66,52,46,41,35,77,42,20,30.08,29.98,29.90,10,10,10,15,4,22,0.00,0,,6
2011-10-2,79,64,50,45,40,36,77,48,23,30.14,30.08,30.04,10,10,10,10,5,,0.00,0,,15
2011-10-3,81,65,50,41,38,34,63,41,19,30.22,30.15,30.10,10,10,10,10,4,,0.00,0,,8
2011-10-4,87,66,44,48,42,36,87,52,17,30.25,30.19,30.13,10,10,10,8,1,,0.00,0,,55
2011-10-5,87,69,51,57,52,46,83,59,31,30.25,30.19,30.12,10,10,6,10,2,,0.00,0,,70
2011-10-6,88,72,55,62,57,51,87,63,34,30.24,30.19,30.14,10,9,4,13,4,18,0.00,1,,67
2011-10-7,89,76,64,67,61,56,84,67,40,30.27,30.24,30.19,10,10,5,16,8,22,0.13,1,,55
2011-10-8,82,73,66,64,62,59,88,70,54,30.28,30.22,30.18,10,10,10,15,8,24,0.00,4,,52
2011-10-9,77,72,66,67,63,57,84,73,60,30.17,30.07,29.97,10,10,9,20,12,26,0.07,7,Rain,39
2011-10-10,80,74,69,73,68,64,89,85,74,29.99,29.82,29.74,10,6,2,22,12,32,1.41,8,Rain-Thunderstorm,46
2011-10-11,82,76,71,73,70,68,94,85,69,29.85,29.80,29.76,10,7,1,8,5,,0.38,8,Rain,115
2011-10-12,84,76,69,72,68,64,94,81,58,29.87,29.83,29.78,10,10,4,8,2,,0.03,7,Rain,208
2011-10-13,87,74,63,67,64,59,90,77,44,29.84,29.78,29.68,10,8,1,9,1,,0.31,5,Rain-Thunderstorm,220
2011-10-14,84,68,55,60,54,47,94,71,29,30.03,29.90,29.82,10,7,0,9,1,,0.01,0,Fog,322
2011-10-15,89,70,51,58,51,45,88,61,23,30.14,30.08,30.03,10,10,7,9,1,,0.00,0,,20
2011-10-16,88,72,55,57,53,49,90,60,27,30.18,30.11,30.06,10,9,5,8,2,,0.01,0,,69
2011-10-17,89,72,54,65,57,50,88,66,32,30.09,29.99,29.90,10,9,6,7,1,,0.00,0,,175
2011-10-18,82,72,64,72,69,60,94,85,69,29.90,29.70,29.55,10,6,2,9,3,,1.54,6,Rain,143
2011-10-19,73,62,52,70,60,44,90,80,45,29.86,29.58,29.48,10,8,2,10,4,24,0.01,6,Rain,287
2011-10-20,66,54,41,41,38,35,86,60,31,30.12,30.03,29.91,10,10,10,8,2,21,0.00,0,,305
2011-10-21,72,55,39,43,39,35,89,64,29,30.22,30.15,30.10,10,10,8,6,1,,0.00,0,,10
2011-10-22,72,56,39,45,40,35,89,64,30,30.17,30.12,30.06,10,10,7,8,1,,0.00,0,,15
2011-10-23,75,57,41,49,44,37,86,67,37,30.14,30.10,30.05,10,8,2,10,1,,0.00,0,,27
2011-10-24,79,62,46,51,47,42,87,66,33,30.19,30.14,30.09,10,8,4,8,1,20,0.01,0,,351
2011-10-25,82,64,46,53,47,43,87,62,25,30.27,30.20,30.15,10,8,3,8,1,,0.00,0,,105
2011-10-26,84,66,51,62,54,46,89,73,38,30.19,30.11,30.03,10,7,2,6,1,,0.00,3,,145
2011-10-27,82,72,60,63,60,56,88,70,44,30.02,29.96,29.91,10,10,7,5,2,,0.00,6,,159
2011-10-28,84,70,59,64,60,55,90,74,44,30.01,29.95,29.90,10,9,4,7,1,,0.00,3,,180
2011-10-29,70,62,48,64,52,35,94,70,32,30.17,29.99,29.89,10,9,5,16,5,23,0.05,5,Rain,2
2011-10-30,71,58,44,49,42,32,82,59,42,30.27,30.21,30.17,10,10,10,14,6,23,0.00,2,,59
2011-10-31,78,66,55,58,51,46,74,65,47,30.22,30.16,30.07,10,10,10,14,6,,0.00,4,,35